Red Dog Airport

About
Name: Red Dog Airport
Identifier:  RDB/PADG
Owner:  NANA
Public/Private:  Private
Local Time:  18. Aug 05:18 AKDT
Description: Coordinates: 68°01′56″N 162°53′57″W / 68.03222°N 162.89917°W / 68.03222; -162.89917
Source: Wikipedia
Location
Runways
Identifier Length (m/ft) Surface
2/20 6,312/6,312 Asphalt
Flights per Day
0 flights
Distance: 976km (606mi)
Punctuality
80% (0 flights per day delayed)
Delay Average: 16 minutes
Current Weather
 16 C (Humidity: 23%)
  9kt (16km/h / 10mph) from 70°
  24km (14 mi.)
 SK
 METAR PADG 180005Z 07009KT 15SM SKC 16/M05 A3067

Current Flights

Departures
Number Departure To Airline
Arrivals
Number Arrival From Airline

Current Delays

Departures
N/A
Arrivals
N/A

Destinations

Top Destinations
Airport Flights
per week
Seats
per week
  Anchorage (ANC) 9 694 1 99

Airlines & Planes

Top Airlines
Airline Flights
per Day
Seats
per Day
  Alaska Airlines 0 99
  Northern Air Cargo 0 -
Top Plane Types
Model Flights Seats
Boeing B737-700 0.8/day 99/day 99.2
Boeing B737-300 0.5/day - 0